Flight Track Log - Related Links

Times and Time Zones

All times are in EST time to prevent confusion due to time zone crossing. See the SWA1849 flight status page for this flight to view local times or setup timezone preferences in your user account.

Time Position Orientation Groundspeed Altitude Reporting Facility
EST Latitude Longitude Course Direction KTS MPH feet Rate Location/Type
Sat 11:38:49 PM 45.5781 -122.5397 106° East 160 184 1,700  Level Seattle Center
Sat 11:39:44 PM 45.5669 -122.4639 102° East 231 266 3,900 2,922 Climbing Seattle Center
Sat 11:40:44 PM 45.5472 -122.3669 106° East 272 313 7,300 3,618 Climbing Seattle Center
Sat 11:40:52 PM 45.5433 -122.3500 108° East 261 300 8,000 3,391 Climbing Seattle Center
Sat 11:41:53 PM 45.4892 -122.3508 181° South 210 242 11,200 3,049 Climbing Seattle Center
Sat 11:42:54 PM 45.4542 -122.4325 239° Southwest 242 278 14,200 2,876 Climbing Seattle Center
Sat 11:43:54 PM 45.4111 -122.5331 239° Southwest 298 343 17,000 2,926 Climbing Seattle Center
Sat 11:44:55 PM 45.3614 -122.6492 239° Southwest 327 376 20,100 3,025 Climbing Seattle Center
Sat 11:45:55 PM 45.3100 -122.7639 238° Southwest 348 400 23,100 2,826 Climbing Seattle Center
Sat 11:46:56 PM 45.2594 -122.8825 239° Southwest 352 405 25,800 2,331 Climbing Seattle Center
Sat 11:47:56 PM 45.1869 -122.9786 223° Southwest 382 440 27,800 2,033 Climbing Seattle Center
Sat 11:48:57 PM 45.0808 -123.0042 190° South 393 452 29,900 2,066 Climbing Seattle Center
Sat 11:49:58 PM 44.9708 -123.0283 189° South 397 457 32,000 2,132 Climbing Seattle Center
Sat 11:50:58 PM 44.8628 -123.0519 189° South 393 452 34,200 2,132 Climbing Seattle Center
Sat 11:51:59 PM 44.7558 -123.0764 189° South 387 445 36,300 2,132 Climbing Seattle Center
Sat 11:52:59 PM 44.6517 -123.1006 189° South 382 440 38,500 1,835 Climbing Seattle Center
Sat 11:54:00 PM 44.5508 -123.1236 189° South 372 428 40,000 1,041 Climbing Seattle Center
Sat 11:55:00 PM 44.4469 -123.1322 183° South 379 436 40,600 496 Climbing Seattle Center
Sat 11:56:01 PM 44.3372 -123.1281 178° South 396 456 41,000 197 Climbing Seattle Center
Sat 11:57:02 PM 44.2242 -123.1236 178° South 406 467 41,000  Level Seattle Center
Sat 11:58:02 PM 44.1131 -123.1208 179° South 400 460 41,000  Level Seattle Center
Sat 11:59:05 PM 43.9897 -123.1167 179° South 398 458 41,000  Level Seattle Center
Sun 12:00:06 AM 43.8781 -123.1122 178° South 400 460 41,000  Level Seattle Center
Sun 12:01:07 AM 43.7686 -123.1086 179° South 394 453 41,000  Level Seattle Center
Sun 12:02:07 AM 43.6572 -123.1053 179° South 399 459 41,000  Level Seattle Center
Sun 12:03:08 AM 43.5458 -123.1017 179° South 399 459 41,000  Level Seattle Center
Sun 12:04:08 AM 43.4353 -123.0983 179° South 398 458 41,000  Level Seattle Center
Sun 12:05:09 AM 43.3242 -123.0939 178° South 400 460 41,000  Level Seattle Center
Sun 12:06:09 AM 43.2128 -123.0906 179° South 399 459 41,000  Level Seattle Center
Sun 12:07:10 AM 43.1025 -123.0861 178° South 397 457 41,000  Level Seattle Center
Sun 12:08:11 AM 42.9911 -123.0808 178° South 399 459 41,000  Level Seattle Center
Sun 12:09:11 AM 42.8794 -123.0769 179° South 401 461 41,000  Level Seattle Center
Sun 12:10:12 AM 42.7669 -123.0739 179° South 403 464 41,000  Level Seattle Center
Sun 12:11:12 AM 42.6500 -123.0706 179° South 400 460 41,000  Level Seattle Center
Sun 12:12:13 AM 42.5394 -123.0667 179° South 399 459 41,000  Level Seattle Center
Sun 12:13:13 AM 42.4283 -123.0628 179° South 401 461 41,000  Level Seattle Center
Sun 12:14:14 AM 42.3164 -123.0600 179° South 402 463 41,000  Level Seattle Center
Sun 12:15:14 AM 42.2028 -123.0547 178° South 409 471 41,000  Level Seattle Center
Sun 12:16:15 AM 42.0900 -123.0522 179° South 408 470 41,000  Level Seattle Center
Sun 12:17:15 AM 41.9781 -123.0478 178° South 405 466 41,000  Level Seattle Center
Sun 12:18:16 AM 41.8653 -123.0458 179° South 406 467 41,000  Level Seattle Center
Sun 12:19:17 AM 41.7528 -123.0425 179° South 406 467 41,000  Level Seattle Center
Sun 12:20:17 AM 41.6397 -123.0361 178° South 409 471 41,000  Level Seattle Center
Sun 12:21:18 AM 41.5275 -123.0311 178° South 408 470 41,000  Level Seattle Center
Sun 12:22:18 AM 41.4161 -123.0272 179° South 404 465 41,000  Level Seattle Center
Sun 12:23:19 AM 41.2825 -123.0206 178° South 406 467 41,000  Level Seattle Center
Sun 12:24:19 AM 41.1681 -123.0139 177° South 410 472 41,000  Level Seattle Center
Sun 12:25:12 AM 41.0669 -123.0092 178° South 408 470 41,000  Level Oakland Center
Sun 12:26:13 AM 40.9625 -123.0042 178° South 409 471 41,000  Level Oakland Center
Sun 12:27:14 AM 40.8489 -122.9989 178° South 408 470 41,000  Level Oakland Center
Sun 12:28:14 AM 40.7239 -122.9936 178° South 418 481 41,000  Level Oakland Center
Sun 12:29:15 AM 40.6097 -122.9872 178° South 415 478 41,000  Level Oakland Center
Sun 12:30:16 AM 40.4969 -122.9819 178° South 409 471 41,000  Level Oakland Center
Sun 12:31:17 AM 40.3819 -122.9761 178° South 413 475 41,000  Level Oakland Center
Sun 12:32:17 AM 40.2664 -122.9703 178° South 418 481 41,000  Level Oakland Center
Sun 12:33:18 AM 40.1506 -122.9644 178° South 420 483 41,000  Level Oakland Center
Sun 12:34:18 AM 40.0353 -122.9589 178° South 419 482 41,000  Level Oakland Center
Sun 12:35:19 AM 39.9186 -122.9531 178° South 422 486 41,000  Level Oakland Center
Sun 12:36:20 AM 39.7789 -122.9464 178° South 421 484 41,000  Level Oakland Center
Sun 12:37:20 AM 39.6628 -122.9419 178° South 421 484 41,000  Level Oakland Center
Sun 12:38:21 AM 39.5456 -122.9308 176° South 425 489 41,000  Level Oakland Center
Sun 12:39:22 AM 39.4386 -122.9133 173° South 433 498 41,000  Level Oakland Center
Sun 12:40:22 AM 39.3178 -122.8961 174° South 437 503 41,000  Level Oakland Center
Sun 12:41:23 AM 39.1972 -122.8783 173° South 436 502 41,000  Level Oakland Center
Sun 12:42:24 AM 39.0778 -122.8533 171° South 434 499 41,000 -893 Level Oakland Center
Sun 12:43:24 AM 38.9578 -122.8375 174° South 435 501 39,200 -2,479 Descending Oakland Center
Sun 12:44:25 AM 38.8175 -122.8147 173° South 428 493 36,000 -2,926 Descending Oakland Center
Sun 12:45:25 AM 38.6997 -122.7961 173° South 427 491 33,300 -2,479 Descending Oakland Center
Sun 12:46:26 AM 38.5858 -122.7789 173° South 417 480 31,000 -2,164 Descending Oakland Center
Sun 12:47:27 AM 38.4758 -122.7611 173° South 404 465 28,900 -2,132 Descending Oakland Center
Sun 12:48:27 AM 38.3694 -122.7450 173° South 390 449 26,700 -2,083 Descending Oakland Center
Sun 12:49:28 AM 38.2653 -122.7292 173° South 382 440 24,700 -2,033 Descending Oakland Center
Sun 12:50:28 AM 38.1639 -122.7136 173° South 372 428 22,600 -1,983 Descending Oakland Center
Sun 12:51:29 AM 38.0672 -122.6994 173° South 355 409 20,700 -1,869 Descending Oakland Center
Sun 12:52:30 AM 37.9717 -122.6847 173° South 351 404 18,800 -1,835 Descending Oakland Center
Sun 12:53:30 AM 37.8839 -122.6567 166° South 347 399 17,000 -2,083 Descending Oakland Center
Sun 12:54:31 AM 37.7981 -122.5650 140° Southeast 345 397 14,600 -2,182 Descending Oakland Center
Sun 12:55:31 AM 37.7269 -122.4894 140° Southeast 340 391 12,600 -1,339 Descending Oakland Center
Sun 12:56:32 AM 37.6592 -122.4172 140° Southeast 325 374 11,900 -492 Descending Oakland Center
Sun 12:57:33 AM 37.5922 -122.3514 142° Southeast 310 357 11,600 -496 Descending Oakland Center
Sun 12:58:33 AM 37.5161 -122.3050 154° Southeast 304 350 10,900 -843 Descending Oakland Center
Sun 12:59:34 AM 37.4414 -122.2564 153° Southeast 302 348 9,900 -942 Descending Oakland Center
Sun 01:00:34 AM 37.3797 -122.1936 141° Southeast 298 343 9,000 -992 Descending Oakland Center
Sun 01:01:35 AM 37.3347 -122.1114 125° Southeast 287 330 7,900 -541 Descending Oakland Center
Sun 01:02:36 AM 37.2947 -122.0419 126° Southeast 251 289 7,900 -545 Level Oakland Center
Sun 01:03:36 AM 37.2500 -121.9894 137° Southeast 222 255 6,800 -942 Descending Oakland Center
Sun 01:04:37 AM 37.2056 -121.9339 135° Southeast 226 260 6,000 -843 Descending Oakland Center
Sun 01:05:37 AM 37.1994 -121.8678 97° East 198 228 5,100 -1,140 Descending Oakland Center
Sun 01:06:38 AM 37.2383 -121.8222 43° Northeast 194 223 3,700 -1,438 Descending Oakland Center
Sun 01:07:38 AM 37.2811 -121.8464 336° Northwest 198 228 2,200 -1,240 Descending Oakland Center
Sun 01:08:39 AM 37.3150 -121.8822 320° Northwest 176 203 1,200 -885 Descending Oakland Center
Sun 01:09:40 AM 37.3433 -121.9097 322° Northwest 150 173 400 -787 Descending Oakland Center

Login

Don't have an account? Register now (free) for customized features, flight alerts, and more!